createdAt,value
2019-03-03T00:00:40.837Z,19.10
2019-03-03T00:01:40.819Z,18.90
2019-03-03T00:02:40.858Z,19.10
2019-03-03T00:03:40.913Z,19.00
2019-03-03T00:04:40.776Z,18.50
2019-03-03T00:05:40.760Z,18.20
2019-03-03T00:06:40.846Z,19.10
2019-03-03T00:07:40.746Z,17.70
2019-03-03T00:08:40.735Z,17.90
2019-03-03T00:09:40.733Z,17.90
2019-03-03T00:10:40.709Z,18.20
2019-03-03T00:11:40.723Z,18.40
2019-03-03T00:12:40.689Z,17.70
2019-03-03T00:13:40.712Z,17.30
2019-03-03T00:14:40.666Z,17.20
2019-03-03T00:15:40.655Z,16.80
2019-03-03T00:16:40.648Z,18.10
2019-03-03T00:17:40.663Z,17.00
2019-03-03T00:18:40.713Z,17.70
2019-03-03T00:19:40.647Z,17.80
2019-03-03T00:20:40.627Z,17.30
2019-03-03T00:21:40.602Z,17.60
2019-03-03T00:22:40.585Z,16.80
2019-03-03T00:23:40.580Z,16.60
2019-03-03T00:24:40.579Z,17.60
2019-03-03T00:25:40.545Z,17.50
2019-03-03T00:26:40.535Z,17.00
2019-03-03T00:27:40.525Z,16.40
2019-03-03T00:28:40.540Z,16.90
2019-03-03T00:29:40.511Z,16.30
2019-03-03T00:30:40.494Z,17.90
2019-03-03T00:31:40.485Z,16.80
2019-03-03T00:32:40.477Z,16.90
2019-03-03T00:33:40.483Z,17.50
2019-03-03T00:34:40.457Z,16.40
2019-03-03T00:35:40.443Z,16.40
2019-03-03T00:36:40.437Z,16.10
2019-03-03T00:37:40.416Z,15.90
2019-03-03T00:38:40.434Z,16.00
2019-03-03T00:39:40.400Z,16.20
2019-03-03T00:40:40.384Z,15.40
2019-03-03T00:41:40.378Z,14.80
2019-03-03T00:42:40.366Z,15.00
2019-03-03T00:43:40.402Z,15.50
2019-03-03T00:44:40.342Z,15.60
2019-03-03T00:45:40.342Z,15.50
2019-03-03T00:46:40.322Z,15.10
2019-03-03T00:47:40.311Z,15.90
2019-03-03T00:48:40.301Z,16.00
2019-03-03T00:49:40.299Z,15.40
2019-03-03T00:50:40.282Z,16.90
2019-03-03T00:51:40.274Z,16.60
2019-03-03T00:52:40.263Z,15.40
2019-03-03T00:53:40.250Z,16.30
2019-03-03T00:54:40.245Z,15.60
2019-03-03T00:55:40.233Z,16.10
2019-03-03T00:56:40.225Z,16.40
2019-03-03T00:57:40.221Z,15.60
2019-03-03T00:58:40.199Z,16.20
2019-03-03T00:59:40.189Z,16.20
2019-03-03T01:00:40.180Z,15.50
2019-03-03T01:01:40.197Z,14.90
2019-03-03T01:02:40.170Z,15.50
2019-03-03T01:03:40.153Z,14.60
2019-03-03T01:04:40.137Z,15.30
2019-03-03T01:05:40.123Z,15.90
2019-03-03T01:06:40.112Z,14.70
2019-03-03T01:07:40.160Z,15.10
2019-03-03T01:08:40.122Z,14.60
2019-03-03T01:09:40.088Z,15.20
2019-03-03T01:10:40.071Z,15.90
2019-03-03T01:11:40.075Z,13.50
2019-03-03T01:12:40.046Z,14.20
2019-03-03T01:13:40.038Z,14.80
2019-03-03T01:14:40.053Z,14.70
2019-03-03T01:15:40.084Z,14.10
2019-03-03T01:16:40.014Z,14.00
2019-03-03T01:17:39.997Z,14.70
2019-03-03T01:18:39.983Z,13.70
2019-03-03T01:19:39.979Z,12.90
2019-03-03T01:20:39.970Z,13.90
2019-03-03T01:21:39.949Z,14.20
2019-03-03T01:22:39.973Z,13.40
2019-03-03T01:23:39.927Z,12.90
2019-03-03T01:24:39.928Z,13.80
2019-03-03T01:25:39.907Z,13.10
2019-03-03T01:26:39.917Z,12.60
2019-03-03T01:27:39.913Z,13.40
2019-03-03T01:28:39.877Z,13.30
2019-03-03T01:29:39.951Z,13.10
2019-03-03T01:30:39.862Z,13.20
2019-03-03T01:31:39.854Z,12.60
2019-03-03T01:32:39.832Z,12.60
2019-03-03T01:33:39.825Z,13.30
2019-03-03T01:34:39.808Z,12.70
2019-03-03T01:35:39.810Z,12.90
2019-03-03T01:36:39.796Z,12.40
2019-03-03T01:37:39.797Z,12.10
2019-03-03T01:38:39.778Z,13.20
2019-03-03T01:39:39.761Z,12.00
2019-03-03T01:40:39.747Z,12.30
2019-03-03T01:41:39.744Z,11.60
2019-03-03T01:42:39.734Z,12.10
2019-03-03T01:43:39.721Z,11.70
2019-03-03T01:44:39.732Z,11.70
2019-03-03T01:45:39.696Z,12.30
2019-03-03T01:46:39.704Z,12.30
2019-03-03T01:47:39.687Z,13.00
2019-03-03T01:48:39.687Z,12.30
2019-03-03T01:49:39.682Z,12.40
2019-03-03T01:50:39.641Z,12.60
2019-03-03T01:51:39.629Z,11.50
2019-03-03T01:52:39.620Z,11.50
2019-03-03T01:53:39.646Z,11.70
2019-03-03T01:54:39.601Z,11.70
2019-03-03T01:55:39.600Z,11.40
2019-03-03T01:56:39.582Z,11.50
2019-03-03T01:57:39.563Z,11.40
2019-03-03T01:58:39.560Z,11.00
2019-03-03T01:59:39.549Z,11.70
2019-03-03T02:00:39.573Z,11.60
2019-03-03T02:01:39.529Z,11.70
2019-03-03T02:02:39.510Z,11.80
2019-03-03T02:03:39.524Z,11.10
2019-03-03T02:04:39.504Z,11.70
2019-03-03T02:05:39.519Z,10.90
2019-03-03T02:06:39.495Z,10.70
2019-03-03T02:07:39.490Z,10.60
2019-03-03T02:08:39.449Z,11.10
2019-03-03T02:09:39.446Z,10.50
2019-03-03T02:10:39.442Z,11.20
2019-03-03T02:11:39.431Z,10.70
2019-03-03T02:12:39.418Z,10.60
2019-03-03T02:13:39.414Z,10.30
2019-03-03T02:14:39.386Z,10.50
2019-03-03T02:15:39.389Z,10.80
2019-03-03T02:16:39.392Z,9.40
2019-03-03T02:17:39.354Z,9.50
2019-03-03T02:18:39.340Z,10.00
2019-03-03T02:19:39.331Z,9.80
2019-03-03T02:20:39.343Z,10.30
2019-03-03T02:21:39.312Z,10.10
2019-03-03T02:22:39.312Z,10.10
2019-03-03T02:23:39.316Z,10.00
2019-03-03T02:24:39.275Z,9.90
2019-03-03T02:25:39.310Z,10.60
2019-03-03T02:26:39.258Z,10.00
2019-03-03T02:27:39.249Z,10.00
2019-03-03T02:28:39.242Z,9.80
2019-03-03T02:29:39.226Z,9.80
2019-03-03T02:30:39.239Z,9.80
2019-03-03T02:31:39.217Z,10.30
2019-03-03T02:32:39.196Z,9.60
2019-03-03T02:33:39.182Z,8.80
2019-03-03T02:34:39.172Z,9.40
2019-03-03T02:35:39.176Z,9.50
2019-03-03T02:36:39.186Z,9.50
2019-03-03T02:37:39.144Z,9.70
2019-03-03T02:38:39.138Z,9.60
2019-03-03T02:39:39.139Z,9.50
2019-03-03T02:40:39.144Z,9.30
2019-03-03T02:41:39.116Z,9.60
2019-03-03T02:42:39.085Z,9.40
2019-03-03T02:43:39.081Z,9.20
2019-03-03T02:44:39.064Z,9.20
2019-03-03T02:45:39.092Z,9.20
2019-03-03T02:46:39.071Z,9.10
2019-03-03T02:47:39.037Z,9.30
2019-03-03T02:48:39.033Z,9.60
2019-03-03T02:49:39.017Z,9.50
2019-03-03T02:50:39.106Z,10.10
2019-03-03T02:51:39.008Z,9.60
2019-03-03T02:52:39.015Z,9.60
2019-03-03T02:53:38.985Z,8.40
2019-03-03T02:54:38.957Z,8.50
2019-03-03T02:55:38.954Z,8.40
2019-03-03T02:56:38.955Z,8.10
2019-03-03T02:57:39.078Z,8.20
2019-03-03T02:58:38.924Z,9.10
2019-03-03T02:59:38.914Z,8.70
2019-03-03T03:00:38.923Z,8.50
2019-03-03T03:01:38.886Z,8.60
2019-03-03T03:02:38.879Z,8.50
2019-03-03T03:03:38.864Z,8.60
2019-03-03T03:04:38.896Z,8.30
2019-03-03T03:05:38.840Z,9.20
2019-03-03T03:06:38.840Z,9.00
2019-03-03T03:07:38.847Z,8.90
2019-03-03T03:08:38.842Z,8.40
2019-03-03T03:09:38.807Z,8.30
2019-03-03T03:10:38.821Z,8.70
2019-03-03T03:11:38.874Z,9.20
2019-03-03T03:12:38.781Z,9.40
2019-03-03T03:13:38.909Z,8.60
2019-03-03T03:14:38.760Z,8.10
2019-03-03T03:15:40.538Z,9.20
2019-03-03T03:16:38.742Z,8.50
2019-03-03T03:17:38.735Z,8.40
2019-03-03T03:18:38.743Z,8.10
2019-03-03T03:19:39.500Z,9.30
2019-03-03T03:20:38.681Z,8.80
2019-03-03T03:21:38.679Z,8.40
2019-03-03T03:22:38.661Z,8.60
2019-03-03T03:23:38.658Z,8.90
2019-03-03T03:24:38.650Z,8.00
2019-03-03T03:25:38.705Z,7.80
2019-03-03T03:26:38.651Z,8.50
2019-03-03T03:27:38.645Z,8.00
2019-03-03T03:28:38.627Z,8.00
2019-03-03T03:29:38.592Z,8.10
2019-03-03T03:30:38.598Z,8.10
2019-03-03T03:31:38.588Z,7.40
2019-03-03T03:32:38.613Z,7.90
2019-03-03T03:33:38.557Z,7.80
2019-03-03T03:34:38.542Z,7.90
2019-03-03T03:35:38.525Z,7.60
2019-03-03T03:36:38.514Z,7.80
2019-03-03T03:37:38.512Z,7.80
2019-03-03T03:38:38.489Z,7.60
2019-03-03T03:39:38.521Z,7.50
2019-03-03T03:40:38.483Z,7.00
2019-03-03T03:41:38.562Z,8.20
2019-03-03T03:42:38.454Z,7.80
2019-03-03T03:43:38.457Z,6.60
2019-03-03T03:44:38.432Z,7.40
2019-03-03T03:45:38.476Z,7.10
2019-03-03T03:46:38.403Z,7.20
2019-03-03T03:47:38.406Z,6.70
2019-03-03T03:48:38.385Z,7.00
2019-03-03T03:49:38.373Z,7.20
2019-03-03T03:50:38.357Z,7.30
2019-03-03T03:51:38.414Z,7.50
2019-03-03T03:52:38.368Z,7.80
2019-03-03T03:53:38.334Z,7.10
2019-03-03T03:54:38.317Z,6.90
2019-03-03T03:55:38.313Z,7.60
2019-03-03T03:56:38.297Z,7.20
2019-03-03T03:57:38.292Z,7.40
2019-03-03T03:58:38.273Z,7.40
2019-03-03T03:59:38.316Z,7.30
2019-03-03T04:00:38.257Z,7.40
2019-03-03T04:01:38.271Z,7.60
2019-03-03T04:02:38.271Z,7.20
2019-03-03T04:03:38.225Z,7.10
2019-03-03T04:04:38.214Z,6.70
2019-03-03T04:05:38.210Z,7.10
2019-03-03T04:06:38.212Z,7.30
2019-03-03T04:07:38.201Z,7.00
2019-03-03T04:08:38.175Z,6.70
2019-03-03T04:09:38.173Z,6.40
2019-03-03T04:10:38.183Z,7.00
2019-03-03T04:11:38.138Z,6.90
2019-03-03T04:12:38.136Z,7.30
2019-03-03T04:13:38.127Z,6.30
2019-03-03T04:14:38.108Z,7.40
2019-03-03T04:15:38.097Z,6.80
2019-03-03T04:16:38.095Z,6.50
2019-03-03T04:17:38.111Z,6.20
2019-03-03T04:18:38.065Z,6.20
2019-03-03T04:19:38.052Z,6.10
2019-03-03T04:20:38.043Z,6.40
2019-03-03T04:21:38.036Z,6.50
2019-03-03T04:22:38.025Z,6.40
2019-03-03T04:23:38.015Z,6.10
2019-03-03T04:24:38.050Z,5.70
2019-03-03T04:25:38.025Z,5.80
2019-03-03T04:26:37.996Z,5.70
2019-03-03T04:27:37.984Z,5.50
2019-03-03T04:28:37.982Z,5.30
2019-03-03T04:29:37.986Z,5.20
2019-03-03T04:30:37.935Z,5.40
2019-03-03T04:31:37.929Z,5.70
2019-03-03T04:32:37.922Z,5.00
2019-03-03T04:33:37.915Z,5.70
2019-03-03T04:34:37.899Z,5.30
2019-03-03T04:35:37.935Z,5.20
2019-03-03T04:36:37.869Z,5.20
2019-03-03T04:37:37.871Z,5.40
2019-03-03T04:38:37.905Z,5.40
2019-03-03T04:39:37.884Z,4.80
2019-03-03T04:40:37.841Z,5.20
2019-03-03T04:41:37.862Z,4.80
2019-03-03T04:42:37.806Z,5.50
2019-03-03T04:43:37.813Z,5.00
2019-03-03T04:44:37.799Z,4.90
2019-03-03T04:45:37.772Z,4.80
2019-03-03T04:46:37.770Z,5.20
2019-03-03T04:47:37.761Z,4.90
2019-03-03T04:48:37.756Z,4.80
2019-03-03T04:49:37.790Z,4.90
2019-03-03T04:50:37.719Z,4.70
2019-03-03T04:51:37.715Z,4.80
2019-03-03T04:52:37.749Z,4.80
2019-03-03T04:53:37.699Z,4.50
2019-03-03T04:54:37.835Z,5.10
2019-03-03T04:55:37.666Z,4.60
2019-03-03T04:56:37.659Z,4.90
2019-03-03T04:57:37.652Z,4.70
2019-03-03T04:58:37.649Z,4.80
2019-03-03T04:59:37.748Z,4.50
2019-03-03T05:00:37.623Z,4.10
2019-03-03T05:01:37.603Z,4.20
2019-03-03T05:02:37.599Z,4.20
2019-03-03T05:03:37.613Z,4.30
2019-03-03T05:04:37.570Z,4.40
2019-03-03T05:05:37.563Z,3.80
2019-03-03T05:06:37.552Z,4.50
2019-03-03T05:07:37.552Z,4.00
2019-03-03T05:08:37.541Z,4.60
2019-03-03T05:09:37.536Z,4.30
2019-03-03T05:10:37.506Z,3.70
2019-03-03T05:11:37.493Z,4.10
2019-03-03T05:12:37.492Z,4.30
2019-03-03T05:13:37.497Z,4.10
2019-03-03T05:14:37.467Z,3.70
2019-03-03T05:15:37.465Z,4.00
2019-03-03T05:16:37.458Z,4.30
2019-03-03T05:17:37.431Z,4.30
2019-03-03T05:18:37.429Z,4.10
2019-03-03T05:19:37.414Z,4.50
2019-03-03T05:20:37.400Z,4.10
2019-03-03T05:21:37.390Z,4.20
2019-03-03T05:22:37.442Z,3.60
2019-03-03T05:23:37.376Z,4.10
2019-03-03T05:24:37.358Z,3.80
2019-03-03T05:25:37.362Z,4.10
2019-03-03T05:26:37.371Z,3.90
2019-03-03T05:27:37.338Z,4.10
2019-03-03T05:28:37.335Z,4.10
2019-03-03T05:29:37.350Z,3.70
2019-03-03T05:30:37.339Z,4.20
2019-03-03T05:31:37.307Z,3.80
2019-03-03T05:32:37.272Z,4.00
2019-03-03T05:33:37.302Z,3.60
2019-03-03T05:34:37.254Z,4.00
2019-03-03T05:35:37.331Z,4.00
2019-03-03T05:36:37.281Z,3.80
2019-03-03T05:37:37.224Z,4.30
2019-03-03T05:38:37.209Z,3.80
2019-03-03T05:39:37.217Z,3.90
2019-03-03T05:40:37.204Z,4.20
2019-03-03T05:41:37.179Z,4.40
2019-03-03T05:42:37.172Z,3.90
2019-03-03T05:43:37.196Z,4.20
2019-03-03T05:44:37.162Z,4.30
2019-03-03T05:45:37.148Z,4.10
2019-03-03T05:46:37.133Z,4.30
2019-03-03T05:47:37.121Z,4.10
2019-03-03T05:48:37.103Z,4.40
2019-03-03T05:49:37.118Z,4.10
2019-03-03T05:50:37.104Z,4.10
2019-03-03T05:51:37.099Z,4.50
2019-03-03T05:52:37.063Z,4.50
2019-03-03T05:53:37.056Z,4.10
2019-03-03T05:54:37.055Z,4.10
2019-03-03T05:55:37.027Z,4.40
2019-03-03T05:56:37.049Z,4.00
2019-03-03T05:57:37.034Z,4.70
2019-03-03T05:58:37.030Z,4.40
2019-03-03T05:59:37.045Z,4.50
2019-03-03T06:00:36.981Z,4.30
2019-03-03T06:01:36.976Z,4.80
2019-03-03T06:02:36.959Z,4.90
2019-03-03T06:03:36.943Z,4.70
2019-03-03T06:04:36.976Z,4.90
2019-03-03T06:05:36.933Z,4.80
2019-03-03T06:06:36.908Z,5.50
2019-03-03T06:07:36.905Z,4.90
2019-03-03T06:08:36.896Z,4.70
2019-03-03T06:09:36.899Z,4.90
2019-03-03T06:10:36.953Z,5.00
2019-03-03T06:11:36.857Z,5.10
2019-03-03T06:12:36.865Z,5.50
2019-03-03T06:13:36.847Z,4.80
2019-03-03T06:14:36.833Z,5.00
2019-03-03T06:15:36.820Z,5.20
2019-03-03T06:16:36.806Z,5.20
2019-03-03T06:17:36.811Z,4.80
2019-03-03T06:18:36.791Z,4.80
2019-03-03T06:19:36.812Z,5.60
2019-03-03T06:20:36.776Z,4.90
2019-03-03T06:21:36.753Z,4.80
2019-03-03T06:22:36.752Z,5.50
2019-03-03T06:23:36.761Z,5.10
2019-03-03T06:24:36.716Z,5.10
2019-03-03T06:25:36.714Z,5.00
2019-03-03T06:26:36.699Z,5.00
2019-03-03T06:27:36.702Z,4.60
2019-03-03T06:28:36.681Z,5.10
2019-03-03T06:29:36.678Z,5.20
2019-03-03T06:30:36.697Z,5.10
2019-03-03T06:31:36.648Z,5.10
2019-03-03T06:32:36.631Z,4.80
2019-03-03T06:33:36.635Z,5.20
2019-03-03T06:34:36.613Z,4.90
2019-03-03T06:35:36.835Z,5.20
2019-03-03T06:36:36.904Z,5.00
2019-03-03T06:37:36.609Z,5.20
2019-03-03T06:38:36.953Z,5.40
2019-03-03T06:39:36.736Z,5.30
2019-03-03T06:40:37.769Z,5.10
2019-03-03T06:41:36.541Z,5.30
2019-03-03T06:42:36.532Z,5.40
2019-03-03T06:43:36.519Z,5.10
2019-03-03T06:44:36.508Z,5.10
2019-03-03T06:45:36.521Z,5.60
2019-03-03T06:46:36.491Z,5.30
2019-03-03T06:47:36.478Z,5.40
2019-03-03T06:48:36.494Z,5.20
2019-03-03T06:49:36.450Z,5.30
2019-03-03T06:50:36.517Z,5.00
2019-03-03T06:51:36.436Z,5.40
2019-03-03T06:52:36.456Z,4.70
2019-03-03T06:53:36.418Z,5.20
2019-03-03T06:54:36.451Z,5.00
2019-03-03T06:55:36.699Z,5.10
2019-03-03T06:56:36.717Z,5.30
2019-03-03T06:57:36.389Z,4.50
2019-03-03T06:58:37.315Z,5.30
2019-03-03T06:59:36.353Z,5.20
2019-03-03T07:00:36.334Z,5.00
2019-03-03T07:01:36.324Z,5.20
2019-03-03T07:02:36.331Z,5.40
2019-03-03T07:03:36.313Z,5.40
2019-03-03T07:04:36.314Z,5.40
2019-03-03T07:05:36.439Z,5.00
2019-03-03T07:06:36.290Z,5.10
2019-03-03T07:07:36.333Z,4.70
2019-03-03T07:08:36.523Z,5.40
2019-03-03T07:09:36.272Z,5.40
2019-03-03T07:10:36.279Z,4.90
2019-03-03T07:11:36.222Z,5.20
2019-03-03T07:12:36.200Z,5.00
2019-03-03T07:13:36.200Z,5.00
2019-03-03T07:14:36.190Z,4.90
2019-03-03T07:15:36.375Z,4.50
2019-03-03T07:16:36.157Z,5.10
2019-03-03T07:17:36.166Z,5.40
2019-03-03T07:18:36.277Z,5.40
2019-03-03T07:19:36.141Z,5.10
2019-03-03T07:20:36.154Z,4.80
2019-03-03T07:21:36.118Z,4.90
2019-03-03T07:22:36.133Z,5.60
2019-03-03T07:23:36.108Z,6.10
2019-03-03T07:24:36.069Z,5.10
2019-03-03T07:25:36.069Z,5.50
2019-03-03T07:26:36.052Z,5.60
2019-03-03T07:27:36.140Z,4.80
2019-03-03T07:28:36.073Z,5.20
2019-03-03T07:29:36.052Z,5.30
2019-03-03T07:30:36.153Z,5.30
2019-03-03T07:31:35.993Z,5.70
2019-03-03T07:32:36.027Z,5.30
2019-03-03T07:33:35.974Z,5.00
2019-03-03T07:34:35.997Z,5.50
2019-03-03T07:35:36.023Z,5.90
2019-03-03T07:36:35.951Z,5.30
2019-03-03T07:37:35.965Z,5.60
2019-03-03T07:38:35.937Z,5.10
2019-03-03T07:39:35.909Z,5.50
2019-03-03T07:40:35.922Z,4.80
2019-03-03T07:41:35.881Z,5.00
2019-03-03T07:42:35.912Z,5.40
2019-03-03T07:43:35.865Z,5.60
2019-03-03T07:44:35.871Z,5.70
2019-03-03T07:45:35.839Z,5.30
2019-03-03T07:46:35.874Z,5.20
2019-03-03T07:47:35.816Z,5.40
2019-03-03T07:48:35.804Z,5.80
2019-03-03T07:49:35.799Z,4.90
2019-03-03T07:50:35.846Z,5.20
2019-03-03T07:51:35.803Z,5.50
2019-03-03T07:52:35.783Z,5.20
2019-03-03T07:53:35.756Z,5.60
2019-03-03T07:54:35.741Z,5.50
2019-03-03T07:55:35.726Z,5.30
2019-03-03T07:56:35.750Z,4.60
2019-03-03T07:57:35.721Z,5.70
2019-03-03T07:58:35.760Z,5.20
2019-03-03T07:59:35.690Z,5.00
2019-03-03T08:00:35.692Z,5.20
2019-03-03T08:01:35.681Z,4.90
2019-03-03T08:02:35.654Z,5.10
2019-03-03T08:03:35.646Z,5.40
2019-03-03T08:04:35.671Z,4.90
2019-03-03T08:05:35.617Z,4.80
2019-03-03T08:06:35.632Z,4.60
2019-03-03T08:07:35.598Z,4.70
2019-03-03T08:08:35.595Z,4.50
2019-03-03T08:09:35.604Z,4.60
2019-03-03T08:10:35.557Z,4.80
2019-03-03T08:11:35.569Z,4.70
2019-03-03T08:12:35.628Z,4.40
2019-03-03T08:13:35.567Z,5.00
2019-03-03T08:14:35.516Z,4.40
2019-03-03T08:15:35.550Z,4.60
2019-03-03T08:16:35.507Z,4.70
2019-03-03T08:17:35.560Z,4.70
2019-03-03T08:18:35.469Z,4.90
2019-03-03T08:19:35.524Z,4.60
2019-03-03T08:20:35.452Z,4.50
2019-03-03T08:21:35.477Z,5.00
2019-03-03T08:22:35.424Z,4.50
2019-03-03T08:23:35.419Z,4.40
2019-03-03T08:24:35.417Z,4.30
2019-03-03T08:25:35.397Z,4.10
2019-03-03T08:26:35.571Z,4.50
2019-03-03T08:27:35.372Z,4.40
2019-03-03T08:28:35.359Z,4.50
2019-03-03T08:29:35.435Z,4.20
2019-03-03T08:30:35.347Z,4.60
2019-03-03T08:31:35.348Z,4.20
2019-03-03T08:32:35.333Z,4.50
2019-03-03T08:33:35.326Z,4.60
2019-03-03T08:34:35.291Z,4.30
2019-03-03T08:35:35.284Z,4.60
2019-03-03T08:36:35.288Z,5.40
2019-03-03T08:37:35.266Z,3.80
2019-03-03T08:38:35.291Z,3.90
2019-03-03T08:39:35.242Z,4.10
2019-03-03T08:40:35.319Z,4.80
2019-03-03T08:41:35.253Z,3.90
2019-03-03T08:42:35.211Z,4.40
2019-03-03T08:43:35.200Z,4.60
2019-03-03T08:44:35.213Z,4.00
2019-03-03T08:45:35.247Z,4.10
2019-03-03T08:46:35.173Z,4.30
2019-03-03T08:47:35.174Z,3.60
2019-03-03T08:48:35.138Z,4.00
2019-03-03T08:49:35.165Z,3.90
2019-03-03T08:50:35.123Z,4.20
2019-03-03T08:51:35.105Z,3.90
2019-03-03T08:52:35.094Z,3.80
2019-03-03T08:53:35.087Z,3.80
2019-03-03T08:54:35.076Z,3.60
2019-03-03T08:55:35.079Z,3.80
2019-03-03T08:56:35.053Z,4.00
2019-03-03T08:57:35.069Z,3.30
2019-03-03T08:58:35.028Z,3.40
2019-03-03T08:59:35.036Z,3.40
2019-03-03T09:00:35.021Z,3.50
2019-03-03T09:01:35.007Z,3.40
2019-03-03T09:02:34.988Z,3.50
2019-03-03T09:03:34.985Z,3.10
2019-03-03T09:04:34.968Z,3.70
2019-03-03T09:05:34.983Z,3.30
2019-03-03T09:06:35.220Z,3.50
2019-03-03T09:07:35.066Z,3.30
2019-03-03T09:08:34.929Z,2.90
2019-03-03T09:09:34.911Z,3.10
2019-03-03T09:10:34.905Z,3.10
2019-03-03T09:11:34.900Z,3.00
2019-03-03T09:12:34.937Z,3.10
2019-03-03T09:13:34.888Z,2.80
2019-03-03T09:14:34.865Z,3.20
2019-03-03T09:15:34.846Z,3.10
2019-03-03T09:16:34.838Z,3.00
2019-03-03T09:17:34.837Z,2.90
2019-03-03T09:18:34.819Z,2.80
2019-03-03T09:19:34.849Z,2.90
2019-03-03T09:20:34.798Z,2.90
2019-03-03T09:21:34.781Z,2.90
2019-03-03T09:22:34.790Z,3.00
2019-03-03T09:23:34.776Z,2.80
2019-03-03T09:24:34.773Z,2.70
2019-03-03T09:25:34.803Z,3.00
2019-03-03T09:26:34.739Z,3.10
2019-03-03T09:27:34.740Z,3.00
2019-03-03T09:28:34.716Z,3.00
2019-03-03T09:29:34.699Z,2.90
2019-03-03T09:30:34.710Z,2.60
2019-03-03T09:31:34.678Z,3.30
2019-03-03T09:32:34.683Z,2.70
2019-03-03T09:33:36.769Z,2.70
2019-03-03T09:34:34.639Z,3.00
2019-03-03T09:35:34.634Z,2.90
2019-03-03T09:36:34.626Z,2.80
2019-03-03T09:37:34.759Z,3.00
2019-03-03T09:38:34.607Z,3.00
2019-03-03T09:39:34.596Z,3.10
2019-03-03T09:40:34.578Z,2.60
2019-03-03T09:41:34.563Z,2.70
2019-03-03T09:42:34.566Z,2.70
2019-03-03T09:43:34.559Z,2.70
2019-03-03T09:44:34.544Z,2.60
2019-03-03T09:45:34.522Z,2.70
2019-03-03T09:46:34.517Z,2.70
2019-03-03T09:47:34.510Z,3.00
2019-03-03T09:48:34.504Z,2.70
2019-03-03T09:49:34.504Z,2.70
2019-03-03T09:50:34.472Z,2.70
2019-03-03T09:51:34.481Z,3.10
2019-03-03T09:52:34.473Z,2.80
2019-03-03T09:53:34.439Z,2.70
2019-03-03T09:54:34.444Z,2.80
2019-03-03T09:55:34.425Z,3.10
2019-03-03T09:56:34.449Z,2.90
2019-03-03T09:57:34.397Z,2.70
2019-03-03T09:58:34.398Z,2.70
2019-03-03T09:59:34.376Z,2.60
2019-03-03T10:00:34.396Z,2.80
2019-03-03T10:01:34.359Z,3.00
2019-03-03T10:02:34.337Z,3.00
2019-03-03T10:03:34.443Z,2.60
2019-03-03T10:04:34.332Z,2.80
2019-03-03T10:05:34.316Z,2.40
2019-03-03T10:06:34.341Z,2.90
2019-03-03T10:07:34.301Z,3.10
2019-03-03T10:08:34.531Z,2.80
2019-03-03T10:09:34.323Z,3.60
2019-03-03T10:10:34.263Z,3.30
2019-03-03T10:11:34.252Z,3.30
2019-03-03T10:12:34.270Z,3.30
2019-03-03T10:13:34.230Z,3.20
2019-03-03T10:14:34.256Z,3.10
2019-03-03T10:15:34.211Z,2.90
2019-03-03T10:16:34.213Z,2.80
2019-03-03T10:17:34.179Z,3.10
2019-03-03T10:18:34.198Z,3.00
2019-03-03T10:19:34.270Z,3.50
2019-03-03T10:20:34.219Z,3.00
2019-03-03T10:21:34.143Z,3.50
2019-03-03T10:22:34.126Z,2.80
2019-03-03T10:23:34.124Z,3.50
2019-03-03T10:24:34.118Z,2.80
2019-03-03T10:25:34.154Z,2.90
2019-03-03T10:26:35.084Z,3.10
2019-03-03T10:27:34.281Z,3.20
2019-03-03T10:28:34.118Z,3.10
2019-03-03T10:29:34.063Z,3.00
2019-03-03T10:30:34.048Z,2.80
2019-03-03T10:31:34.052Z,3.00
2019-03-03T10:32:34.014Z,3.20
2019-03-03T10:33:34.008Z,3.40
2019-03-03T10:34:34.113Z,3.00
2019-03-03T10:35:33.998Z,3.20
2019-03-03T10:36:33.979Z,3.10
2019-03-03T10:37:33.968Z,2.80
2019-03-03T10:38:36.305Z,2.90
2019-03-03T10:39:33.949Z,2.90
2019-03-03T10:40:33.936Z,3.00
2019-03-03T10:41:33.967Z,3.20
2019-03-03T10:42:33.905Z,2.90
2019-03-03T10:43:33.954Z,2.60
2019-03-03T10:44:33.897Z,2.40
2019-03-03T10:45:33.880Z,2.70
2019-03-03T10:46:33.878Z,2.80
2019-03-03T10:47:33.883Z,2.70
2019-03-03T10:48:33.846Z,2.50
2019-03-03T10:49:33.854Z,2.80
2019-03-03T10:50:33.822Z,2.90
2019-03-03T10:51:33.821Z,2.50
2019-03-03T10:52:33.806Z,3.40
2019-03-03T10:53:33.821Z,2.80
2019-03-03T10:54:33.820Z,3.10
2019-03-03T10:55:33.776Z,3.00
2019-03-03T10:56:33.772Z,2.90
2019-03-03T10:57:33.766Z,3.20
2019-03-03T10:58:33.752Z,2.80
2019-03-03T10:59:33.816Z,3.20
2019-03-03T11:00:33.719Z,2.50
2019-03-03T11:01:33.703Z,2.60
2019-03-03T11:02:33.689Z,2.90
2019-03-03T11:03:33.685Z,2.80
2019-03-03T11:04:33.685Z,2.50
2019-03-03T11:05:33.657Z,3.00
2019-03-03T11:06:33.653Z,3.10
2019-03-03T11:07:33.639Z,2.60
2019-03-03T11:08:33.627Z,2.60
2019-03-03T11:09:33.640Z,2.50
2019-03-03T11:10:33.611Z,2.80
2019-03-03T11:11:33.595Z,2.70
2019-03-03T11:12:33.584Z,2.70
2019-03-03T11:13:33.585Z,2.90
2019-03-03T11:14:33.561Z,2.80
2019-03-03T11:15:33.574Z,2.80
2019-03-03T11:16:33.682Z,2.90
2019-03-03T11:17:33.560Z,3.00
2019-03-03T11:18:33.515Z,2.60
2019-03-03T11:19:33.507Z,3.00
2019-03-03T11:20:33.503Z,2.80
2019-03-03T11:21:33.490Z,2.80
2019-03-03T11:22:33.491Z,3.00
2019-03-03T11:23:33.499Z,2.80
2019-03-03T11:24:33.512Z,2.60
2019-03-03T11:25:33.441Z,3.40
2019-03-03T11:26:33.438Z,2.50
2019-03-03T11:27:33.425Z,3.00
2019-03-03T11:28:33.438Z,2.90
2019-03-03T11:29:33.403Z,2.70
2019-03-03T11:30:33.387Z,2.60
2019-03-03T11:31:33.417Z,2.60
2019-03-03T11:32:33.394Z,2.40
2019-03-03T11:33:33.361Z,2.70
2019-03-03T11:34:33.352Z,3.00
2019-03-03T11:35:33.376Z,2.90
2019-03-03T11:36:33.322Z,3.10
2019-03-03T11:37:33.311Z,3.00
2019-03-03T11:38:33.314Z,2.60
2019-03-03T11:39:33.301Z,2.80
2019-03-03T11:40:33.319Z,2.70
2019-03-03T11:41:33.265Z,2.70
2019-03-03T11:42:33.259Z,2.70
2019-03-03T11:43:33.249Z,3.40
2019-03-03T11:44:33.242Z,2.80
2019-03-03T11:45:33.380Z,2.80
2019-03-03T11:46:33.214Z,2.50
2019-03-03T11:47:33.199Z,3.40
2019-03-03T11:48:33.189Z,2.90
2019-03-03T11:49:33.177Z,2.80
2019-03-03T11:50:33.182Z,2.70
2019-03-03T11:51:33.162Z,2.70
2019-03-03T11:52:33.195Z,2.90
2019-03-03T11:53:33.145Z,2.90
2019-03-03T11:54:33.125Z,2.90
2019-03-03T11:55:33.127Z,2.50
2019-03-03T11:56:33.115Z,2.40
2019-03-03T11:57:33.127Z,2.70
2019-03-03T11:58:33.153Z,2.80
2019-03-03T11:59:33.142Z,2.50
2019-03-03T12:00:33.059Z,2.40
2019-03-03T12:01:33.059Z,2.70
2019-03-03T12:02:33.253Z,2.90
2019-03-03T12:03:33.041Z,2.80
2019-03-03T12:04:33.116Z,3.00
2019-03-03T12:05:33.073Z,2.20
2019-03-03T12:06:33.121Z,3.10
2019-03-03T12:07:33.003Z,2.80
2019-03-03T12:08:32.975Z,2.30
2019-03-03T12:09:32.962Z,2.50
2019-03-03T12:10:34.174Z,2.50
2019-03-03T12:11:32.947Z,3.10
2019-03-03T12:12:32.934Z,2.40
2019-03-03T12:13:32.944Z,2.70
2019-03-03T12:14:33.009Z,2.40
2019-03-03T12:15:32.898Z,2.60
2019-03-03T12:16:32.916Z,2.50
2019-03-03T12:17:32.879Z,2.40
2019-03-03T12:18:32.869Z,2.90
2019-03-03T12:19:32.883Z,2.70
2019-03-03T12:20:32.903Z,2.70
2019-03-03T12:21:32.849Z,2.90
2019-03-03T12:22:32.821Z,2.80
2019-03-03T12:23:32.811Z,2.90
2019-03-03T12:24:32.802Z,2.40
2019-03-03T12:25:32.828Z,2.40
2019-03-03T12:26:32.792Z,2.50
2019-03-03T12:27:32.773Z,2.20
2019-03-03T12:28:32.760Z,3.20
2019-03-03T12:29:32.777Z,2.80
2019-03-03T12:30:32.742Z,2.10
2019-03-03T12:31:32.740Z,2.90
2019-03-03T12:32:32.734Z,2.40
2019-03-03T12:33:32.740Z,2.90
2019-03-03T12:34:32.691Z,3.00
2019-03-03T12:35:32.684Z,2.50
2019-03-03T12:36:32.686Z,2.70
2019-03-03T12:37:32.667Z,2.60
2019-03-03T12:38:32.676Z,3.10
2019-03-03T12:39:32.641Z,3.10
2019-03-03T12:40:32.635Z,2.70
2019-03-03T12:41:32.688Z,3.20
2019-03-03T12:42:32.636Z,3.40
2019-03-03T12:43:32.603Z,3.40
2019-03-03T12:44:32.597Z,3.30
2019-03-03T12:45:32.583Z,3.00
2019-03-03T12:46:32.559Z,3.00
2019-03-03T12:47:32.552Z,3.20
2019-03-03T12:48:32.553Z,3.10
2019-03-03T12:49:32.529Z,3.30
2019-03-03T12:50:32.517Z,2.90
2019-03-03T12:51:32.509Z,3.10
2019-03-03T12:52:32.496Z,3.20
2019-03-03T12:53:32.494Z,3.50
2019-03-03T12:54:32.470Z,3.30
2019-03-03T12:55:32.468Z,3.40
2019-03-03T12:56:32.452Z,3.70
2019-03-03T12:57:32.447Z,3.30
2019-03-03T12:58:32.429Z,3.40
2019-03-03T12:59:32.569Z,3.10
2019-03-03T13:00:32.411Z,3.10
2019-03-03T13:01:32.403Z,3.00
2019-03-03T13:02:32.438Z,3.20
2019-03-03T13:03:32.379Z,3.10
2019-03-03T13:04:32.362Z,3.70
2019-03-03T13:05:32.384Z,3.00
2019-03-03T13:06:32.341Z,3.10
2019-03-03T13:07:32.348Z,3.40
2019-03-03T13:08:32.319Z,2.90
2019-03-03T13:09:32.308Z,3.20
2019-03-03T13:10:32.385Z,3.10
2019-03-03T13:11:32.292Z,2.80
2019-03-03T13:12:32.286Z,3.20
2019-03-03T13:13:32.260Z,3.00